Time;durP1;ratioP1;P1;durP2;ratioP2;P2;SDS_P1;SDS_P2;PMS_P1;PMS_P2;Temp;Humidity;BMP_temperature;BMP_pressure;BME280_temperature;BME280_humidity;BME280_pressure;Samples;Min_cycle;Max_cycle;Signal;HPM_P1;HPM_P2
2023/11/27 00:01:08;;;;;;;24.90;11.80;;;-0.60;99.90;;;;;;5064945;28;20213;-58
2023/11/27 00:03:34;;;;;;;54.83;12.57;;;-0.60;99.90;;;;;;5063100;28;20173;-57
2023/11/27 00:06:00;;;;;;;31.97;13.83;;;-0.60;99.90;;;;;;5065683;28;20442;-58
2023/11/27 00:08:25;;;;;;;33.40;12.90;;;-0.60;99.90;;;;;;5066694;28;20457;-58
2023/11/27 00:10:51;;;;;;;35.73;13.40;;;-0.60;99.90;;;;;;5062708;28;20271;-57
2023/11/27 00:13:16;;;;;;;25.83;12.23;;;-0.50;99.90;;;;;;5067012;28;20215;-57
2023/11/27 00:15:42;;;;;;;33.87;13.27;;;-0.50;99.90;;;;;;5064630;28;20203;-57
2023/11/27 00:18:08;;;;;;;24.20;12.00;;;-0.50;99.90;;;;;;5069223;28;20184;-58
2023/11/27 00:20:34;;;;;;;25.03;12.73;;;-0.50;99.90;;;;;;5066202;28;20238;-57
2023/11/27 00:22:59;;;;;;;27.70;10.97;;;-0.50;99.90;;;;;;5068299;28;20805;-58
2023/11/27 00:25:25;;;;;;;58.57;13.40;;;-0.50;99.90;;;;;;5066970;28;20180;-57
2023/11/27 00:27:51;;;;;;;21.87;11.50;;;-0.40;99.90;;;;;;5069191;28;20177;-58
2023/11/27 00:30:17;;;;;;;27.20;11.80;;;-0.50;99.90;;;;;;5066772;28;20451;-58
2023/11/27 00:32:42;;;;;;;23.70;11.50;;;-0.50;99.90;;;;;;5067526;28;20231;-58
2023/11/27 00:35:08;;;;;;;34.00;11.83;;;-0.50;99.90;;;;;;5069735;28;20754;-57
2023/11/27 00:37:34;;;;;;;26.53;11.83;;;-0.50;99.90;;;;;;5066473;28;20327;-57
2023/11/27 00:39:59;;;;;;;23.93;11.30;;;-0.40;99.90;;;;;;5066329;28;20226;-56
2023/11/27 00:42:25;;;;;;;40.20;10.73;;;-0.40;99.90;;;;;;5066466;28;20204;-57
2023/11/27 00:44:51;;;;;;;23.67;11.23;;;-0.40;99.90;;;;;;5065018;28;20184;-58
2023/11/27 00:47:17;;;;;;;22.67;11.30;;;-0.50;99.90;;;;;;5064994;28;20603;-57
2023/11/27 00:49:43;;;;;;;18.63;9.43;;;-0.50;99.90;;;;;;5065671;28;20180;-58
2023/11/27 00:52:09;;;;;;;23.53;10.70;;;-0.40;99.90;;;;;;5063810;28;21101;-57
2023/11/27 00:54:34;;;;;;;23.23;9.70;;;-0.50;99.90;;;;;;5065360;28;20439;-58
2023/11/27 00:57:00;;;;;;;19.87;9.67;;;-0.40;99.90;;;;;;5062656;28;20211;-57
2023/11/27 00:59:26;;;;;;;22.93;10.20;;;-0.50;99.90;;;;;;5066680;28;20192;-58
2023/11/27 01:01:51;;;;;;;26.17;10.67;;;-0.40;99.90;;;;;;5067254;28;20193;-57
2023/11/27 01:04:17;;;;;;;29.27;11.00;;;-0.40;99.90;;;;;;5068753;28;20218;-57
2023/11/27 01:06:43;;;;;;;36.50;12.53;;;-0.40;99.90;;;;;;5067366;28;20387;-58
2023/11/27 01:09:09;;;;;;;28.53;10.87;;;-0.40;99.90;;;;;;5062924;28;20177;-58
2023/11/27 01:11:34;;;;;;;27.97;10.40;;;-0.40;99.90;;;;;;5063736;28;20343;-58
2023/11/27 01:14:00;;;;;;;40.83;10.83;;;-0.40;99.90;;;;;;5061692;28;20433;-58
2023/11/27 01:16:26;;;;;;;22.20;9.80;;;-0.40;99.90;;;;;;5066291;28;20214;-57
2023/11/27 01:18:52;;;;;;;65.10;12.87;;;-0.40;99.90;;;;;;5065269;28;20180;-58
2023/11/27 01:21:17;;;;;;;23.87;10.80;;;-0.50;99.90;;;;;;5069068;28;20495;-58
2023/11/27 01:23:43;;;;;;;24.40;11.70;;;-0.50;99.90;;;;;;5066066;28;20427;-58
2023/11/27 01:26:09;;;;;;;40.57;11.40;;;-0.50;99.90;;;;;;5066914;28;20176;-58
2023/11/27 01:28:36;;;;;;;73.90;13.67;;;-0.50;99.90;;;;;;5067006;28;20568;-58
2023/11/27 01:31:03;;;;;;;29.40;11.77;;;-0.50;99.90;;;;;;5069509;28;20296;-58
2023/11/27 01:33:29;;;;;;;29.30;11.87;;;-0.60;99.90;;;;;;5068917;28;20469;-57
2023/11/27 01:35:54;;;;;;;40.40;12.97;;;-0.60;99.90;;;;;;5061878;28;21443;-57
2023/11/27 01:38:20;;;;;;;30.97;12.57;;;-0.60;99.90;;;;;;5064207;28;20180;-58
2023/11/27 01:40:46;;;;;;;31.73;11.27;;;-0.60;99.90;;;;;;5068348;28;20209;-58
2023/11/27 01:43:15;;;;;;;35.77;12.70;;;-0.50;99.90;;;;;;5066464;28;20339;-58
2023/11/27 01:45:42;;;;;;;25.57;10.27;;;-0.50;99.90;;;;;;5063378;28;20259;-58
2023/11/27 01:48:08;;;;;;;42.80;12.53;;;-0.50;99.90;;;;;;5061539;28;20460;-58
2023/11/27 01:50:34;;;;;;;82.83;14.10;;;-0.50;99.90;;;;;;5067011;28;20421;-57
2023/11/27 01:53:01;;;;;;;27.00;11.33;;;-0.50;99.90;;;;;;5064862;28;20418;-58
2023/11/27 01:55:28;;;;;;;62.20;12.17;;;-0.60;99.90;;;;;;5065532;28;20454;-57
2023/11/27 01:57:54;;;;;;;31.43;10.73;;;-0.60;99.90;;;;;;5067171;28;20466;-58
2023/11/27 02:00:22;;;;;;;30.30;10.50;;;-0.50;99.90;;;;;;5069330;28;20982;-56
2023/11/27 02:02:49;;;;;;;31.20;11.70;;;-0.60;99.90;;;;;;5064095;28;20441;-58
2023/11/27 02:05:16;;;;;;;26.47;11.07;;;-0.60;99.90;;;;;;5068439;28;20480;-57
2023/11/27 02:07:42;;;;;;;26.67;11.17;;;-0.60;99.90;;;;;;5064633;28;20406;-58
2023/11/27 02:10:09;;;;;;;19.73;9.93;;;-0.50;99.90;;;;;;5066971;28;20825;-58
2023/11/27 02:12:34;;;;;;;31.70;12.30;;;-0.50;99.90;;;;;;5061398;28;20435;-57
2023/11/27 02:15:00;;;;;;;49.50;12.53;;;-0.50;99.90;;;;;;5067226;28;20470;-58
2023/11/27 02:17:26;;;;;;;35.13;10.93;;;-0.50;99.90;;;;;;5066640;28;20303;-58
2023/11/27 02:19:52;;;;;;;52.47;11.63;;;-0.50;99.90;;;;;;5063889;28;20176;-58
2023/11/27 02:22:17;;;;;;;26.53;10.87;;;-0.50;99.90;;;;;;5065999;28;20197;-57
2023/11/27 02:24:43;;;;;;;24.60;11.00;;;-0.50;99.90;;;;;;5067400;28;20200;-58
2023/11/27 02:27:09;;;;;;;28.77;10.60;;;-0.50;99.90;;;;;;5060202;28;20639;-58
2023/11/27 02:29:34;;;;;;;28.13;11.20;;;-0.50;99.90;;;;;;5057014;28;20185;-58
2023/11/27 02:32:03;;;;;;;25.33;10.60;;;-0.50;99.90;;;;;;5067992;28;20682;-57
2023/11/27 02:34:28;;;;;;;21.00;10.33;;;-0.50;99.90;;;;;;5066529;28;20171;-58
2023/11/27 02:36:54;;;;;;;24.27;10.10;;;-0.40;99.90;;;;;;5064158;28;20592;-58
2023/11/27 02:39:20;;;;;;;20.60;9.73;;;-0.40;99.90;;;;;;5066335;28;20176;-58
2023/11/27 02:41:45;;;;;;;31.33;11.23;;;-0.40;99.90;;;;;;5066599;28;20196;-59
2023/11/27 02:44:11;;;;;;;31.00;12.07;;;-0.40;99.90;;;;;;5065863;28;20518;-57
2023/11/27 02:46:37;;;;;;;22.57;10.83;;;-0.40;99.90;;;;;;5056793;28;20204;-59
2023/11/27 02:49:02;;;;;;;28.40;10.70;;;-0.40;99.90;;;;;;5062908;28;20539;-58
2023/11/27 02:51:28;;;;;;;19.67;9.73;;;-0.40;99.90;;;;;;5062593;28;20200;-57
2023/11/27 02:53:54;;;;;;;19.33;9.90;;;-0.40;99.90;;;;;;5063171;28;20180;-59
2023/11/27 02:56:19;;;;;;;20.17;9.07;;;-0.40;99.90;;;;;;5060219;28;20236;-59
2023/11/27 02:58:45;;;;;;;19.93;9.43;;;-0.40;99.90;;;;;;5062494;28;20184;-59
2023/11/27 03:01:10;;;;;;;17.50;9.03;;;-0.30;99.90;;;;;;5067307;28;20223;-60
2023/11/27 03:03:37;;;;;;;22.73;9.90;;;-0.30;99.90;;;;;;5064752;28;20177;-59
2023/11/27 03:06:03;;;;;;;17.93;9.53;;;-0.30;99.90;;;;;;5066478;28;20685;-59
2023/11/27 03:08:29;;;;;;;22.90;10.67;;;-0.30;99.90;;;;;;5058330;28;21264;-58
2023/11/27 03:10:56;;;;;;;21.20;10.80;;;-0.30;99.90;;;;;;5064661;28;20511;-59
2023/11/27 03:13:23;;;;;;;28.90;10.13;;;-0.30;99.90;;;;;;5063476;28;20546;-59
2023/11/27 03:15:49;;;;;;;27.17;11.53;;;-0.30;99.90;;;;;;5061470;28;20446;-60
2023/11/27 03:18:14;;;;;;;20.17;9.90;;;-0.30;99.90;;;;;;5067862;28;20427;-59
2023/11/27 03:20:40;;;;;;;20.23;9.70;;;-0.20;99.90;;;;;;5066395;28;20431;-58
2023/11/27 03:23:06;;;;;;;25.73;10.30;;;-0.20;99.90;;;;;;5062871;28;20682;-59
2023/11/27 03:25:31;;;;;;;21.67;10.43;;;-0.20;99.90;;;;;;5065742;28;20184;-59
2023/11/27 03:27:57;;;;;;;23.00;10.47;;;-0.20;99.90;;;;;;5067299;28;20188;-59
2023/11/27 03:30:22;;;;;;;29.87;11.10;;;-0.20;99.90;;;;;;5065207;28;20176;-58
2023/11/27 03:32:48;;;;;;;23.37;10.13;;;-0.20;99.90;;;;;;5062865;28;20868;-59
2023/11/27 03:35:14;;;;;;;23.00;10.47;;;-0.20;99.90;;;;;;5067142;28;20256;-59
2023/11/27 03:37:39;;;;;;;25.03;11.33;;;-0.20;99.90;;;;;;5065032;28;20281;-59
2023/11/27 03:40:06;;;;;;;22.10;9.10;;;-0.10;99.90;;;;;;5066565;28;20179;-59
2023/11/27 03:42:32;;;;;;;20.63;10.33;;;-0.20;99.90;;;;;;5063372;28;20616;-58
2023/11/27 03:44:58;;;;;;;19.90;10.17;;;-0.10;99.90;;;;;;5067287;28;20415;-58
2023/11/27 03:47:24;;;;;;;22.03;10.07;;;-0.20;99.90;;;;;;5052801;28;20188;-60
2023/11/27 03:49:49;;;;;;;23.50;9.50;;;-0.20;99.90;;;;;;5065653;28;20439;-58
2023/11/27 03:52:15;;;;;;;19.33;9.73;;;-0.20;99.90;;;;;;5060229;28;20553;-59
2023/11/27 03:54:41;;;;;;;21.80;9.40;;;-0.20;99.90;;;;;;5060329;28;20559;-58
2023/11/27 03:57:06;;;;;;;21.00;9.30;;;-0.20;99.90;;;;;;5064894;28;20280;-58
2023/11/27 03:59:32;;;;;;;20.17;8.90;;;-0.20;99.90;;;;;;5067159;28;20564;-60
2023/11/27 04:01:58;;;;;;;20.90;10.90;;;-0.30;99.90;;;;;;5063699;28;20197;-59
2023/11/27 04:04:24;;;;;;;20.17;9.03;;;-0.30;99.90;;;;;;5065850;28;20180;-59
2023/11/27 04:06:49;;;;;;;16.83;8.40;;;-0.30;99.90;;;;;;5064487;28;20914;-59
2023/11/27 04:09:20;;;;;;;23.50;9.70;;;-0.30;99.90;;;;;;5063684;28;20202;-59
2023/11/27 04:11:46;;;;;;;18.10;8.97;;;-0.30;99.90;;;;;;5061689;28;20307;-58
2023/11/27 04:14:12;;;;;;;13.80;8.80;;;-0.30;99.90;;;;;;5059443;28;21059;-60
2023/11/27 04:16:37;;;;;;;16.73;8.80;;;-0.30;99.90;;;;;;5066041;28;20466;-60
2023/11/27 04:19:04;;;;;;;21.17;9.63;;;-0.30;99.90;;;;;;5067227;28;20805;-59
2023/11/27 04:21:30;;;;;;;15.47;8.30;;;-0.30;99.90;;;;;;5064045;28;20261;-58
2023/11/27 04:23:55;;;;;;;16.60;9.07;;;-0.30;99.90;;;;;;5057976;28;20465;-59
2023/11/27 04:26:21;;;;;;;18.57;9.57;;;-0.30;99.90;;;;;;5065489;28;20175;-59
2023/11/27 04:28:48;;;;;;;16.63;8.17;;;-0.30;99.90;;;;;;5064744;28;20204;-59
2023/11/27 04:31:14;;;;;;;16.97;9.00;;;-0.30;99.90;;;;;;5061587;28;20192;-60
2023/11/27 04:33:39;;;;;;;17.53;8.57;;;-0.30;99.90;;;;;;5059680;28;20942;-59
2023/11/27 04:36:06;;;;;;;17.60;9.10;;;-0.30;99.90;;;;;;5066391;28;20246;-59
2023/11/27 04:38:31;;;;;;;19.23;8.20;;;-0.30;99.90;;;;;;5064694;28;20614;-59
2023/11/27 04:40:57;;;;;;;16.13;7.60;;;-0.30;99.90;;;;;;5062656;28;20660;-59
2023/11/27 04:43:23;;;;;;;18.43;7.80;;;-0.30;99.90;;;;;;5061627;28;20169;-59
2023/11/27 04:45:48;;;;;;;16.10;7.27;;;-0.40;99.90;;;;;;5060182;28;20192;-60
2023/11/27 04:48:14;;;;;;;16.20;7.73;;;-0.40;99.90;;;;;;5059803;28;20418;-59
2023/11/27 04:50:40;;;;;;;17.93;8.03;;;-0.40;99.90;;;;;;5058832;28;20195;-59
2023/11/27 04:53:05;;;;;;;18.87;8.77;;;-0.40;99.90;;;;;;5057266;28;20195;-59
2023/11/27 04:55:32;;;;;;;18.93;7.90;;;-0.40;99.90;;;;;;5045077;28;20181;-58
2023/11/27 04:57:58;;;;;;;14.83;8.00;;;-0.40;99.90;;;;;;5051934;28;20296;-59
2023/11/27 05:00:23;;;;;;;12.83;7.47;;;-0.40;99.90;;;;;;5057747;28;20620;-59
2023/11/27 05:02:49;;;;;;;13.67;7.90;;;-0.40;99.90;;;;;;5059527;28;20185;-58
2023/11/27 05:05:15;;;;;;;14.63;7.53;;;-0.40;99.90;;;;;;5063547;28;20193;-58
2023/11/27 05:07:41;;;;;;;15.10;7.17;;;-0.50;99.90;;;;;;5059034;28;20318;-59
2023/11/27 05:10:07;;;;;;;16.77;7.50;;;-0.50;99.90;;;;;;5057362;28;20188;-58
2023/11/27 05:12:33;;;;;;;13.47;8.00;;;-0.50;99.90;;;;;;5059966;28;20466;-58
2023/11/27 05:14:59;;;;;;;16.73;8.37;;;-0.50;99.90;;;;;;5061426;28;20947;-58
2023/11/27 05:17:24;;;;;;;15.00;7.93;;;-0.40;99.90;;;;;;5065565;28;20696;-59
2023/11/27 05:19:50;;;;;;;17.13;8.63;;;-0.40;99.90;;;;;;5062764;28;20503;-59
2023/11/27 05:22:16;;;;;;;17.13;7.47;;;-0.40;99.90;;;;;;5061968;28;20200;-58
2023/11/27 05:24:42;;;;;;;18.50;8.13;;;-0.30;99.90;;;;;;5065852;28;20439;-60
2023/11/27 05:27:08;;;;;;;13.47;7.20;;;-0.30;99.90;;;;;;5058527;28;20180;-60
2023/11/27 05:29:34;;;;;;;14.30;7.10;;;-0.30;99.90;;;;;;5061075;28;20442;-61
2023/11/27 05:32:07;;;;;;;17.30;6.80;;;-0.20;99.90;;;;;;5063179;28;20231;-61
2023/11/27 05:34:33;;;;;;;8.20;5.87;;;-0.10;99.90;;;;;;5062482;28;20572;-61
2023/11/27 05:36:59;;;;;;;14.43;6.80;;;-0.10;99.90;;;;;;5060733;28;20465;-60
2023/11/27 05:39:24;;;;;;;12.50;6.23;;;0.00;99.90;;;;;;5062489;28;20427;-60
2023/11/27 05:41:50;;;;;;;12.33;7.03;;;0.00;99.90;;;;;;5056547;28;20191;-60
2023/11/27 05:44:17;;;;;;;12.00;7.00;;;0.00;99.90;;;;;;5061531;28;20176;-59
2023/11/27 05:46:43;;;;;;;12.67;7.63;;;0.10;99.90;;;;;;5061754;28;20514;-60
2023/11/27 05:49:09;;;;;;;13.60;7.53;;;0.10;99.90;;;;;;5061779;28;20474;-60
2023/11/27 05:51:39;;;;;;;13.60;7.50;;;0.10;99.90;;;;;;5057014;28;20860;-61
2023/11/27 05:54:06;;;;;;;15.77;8.57;;;0.10;99.90;;;;;;5069143;28;20169;-60
2023/11/27 05:56:32;;;;;;;12.60;7.63;;;0.10;99.90;;;;;;5059159;28;20984;-60
2023/11/27 05:58:57;;;;;;;14.23;8.07;;;0.20;99.90;;;;;;5063295;28;20444;-60
2023/11/27 06:01:23;;;;;;;13.90;7.60;;;0.20;99.90;;;;;;5061477;28;20209;-60
2023/11/27 06:03:48;;;;;;;17.53;9.00;;;0.20;99.90;;;;;;5062394;28;20184;-60
2023/11/27 06:06:14;;;;;;;14.60;7.80;;;0.20;99.90;;;;;;5065281;28;20620;-60
2023/11/27 06:08:41;;;;;;;14.53;8.17;;;0.30;99.90;;;;;;5053688;28;20192;-59
2023/11/27 06:11:07;;;;;;;15.23;7.73;;;0.30;99.90;;;;;;5062309;28;20338;-60
2023/11/27 06:13:32;;;;;;;16.27;8.63;;;0.30;99.90;;;;;;5063073;28;20522;-60
2023/11/27 06:15:58;;;;;;;14.17;8.80;;;0.40;99.90;;;;;;5065735;28;20790;-61
2023/11/27 06:18:24;;;;;;;14.23;8.20;;;0.40;99.90;;;;;;5059844;28;20181;-60
2023/11/27 06:20:49;;;;;;;15.13;8.33;;;0.40;99.90;;;;;;5059564;28;20309;-61
2023/11/27 06:23:15;;;;;;;14.93;8.60;;;0.40;99.90;;;;;;5063740;28;20171;-60
2023/11/27 06:25:41;;;;;;;17.30;8.87;;;0.40;99.90;;;;;;5062366;28;20552;-59
2023/11/27 06:28:13;;;;;;;12.97;7.67;;;0.40;99.90;;;;;;5063246;28;20212;-60
2023/11/27 06:30:39;;;;;;;18.00;10.10;;;0.40;99.90;;;;;;5065178;28;20441;-60
2023/11/27 06:33:04;;;;;;;14.27;8.40;;;0.40;99.90;;;;;;5065471;28;20419;-59
2023/11/27 06:35:30;;;;;;;16.90;9.00;;;0.50;99.90;;;;;;5065795;28;20429;-61
2023/11/27 06:37:56;;;;;;;17.40;8.47;;;0.50;99.90;;;;;;5056928;28;20204;-60
2023/11/27 06:40:24;;;;;;;17.37;8.90;;;0.50;99.90;;;;;;5063259;28;20250;-59
2023/11/27 06:42:49;;;;;;;14.87;8.47;;;0.50;99.90;;;;;;5060344;28;20559;-60
2023/11/27 06:45:15;;;;;;;14.60;7.93;;;0.50;99.90;;;;;;5059702;28;20444;-59
2023/11/27 06:47:41;;;;;;;13.33;8.90;;;0.50;99.90;;;;;;5059100;28;20184;-59
2023/11/27 06:50:07;;;;;;;19.80;9.77;;;0.50;99.90;;;;;;5055797;28;20941;-60
2023/11/27 06:52:32;;;;;;;15.77;8.53;;;0.60;99.90;;;;;;5053421;28;20298;-63
2023/11/27 06:54:58;;;;;;;16.43;8.90;;;0.60;99.90;;;;;;5056100;28;20181;-59
2023/11/27 06:57:24;;;;;;;16.67;9.20;;;0.60;99.90;;;;;;5062807;28;20214;-60
2023/11/27 06:59:49;;;;;;;18.17;8.80;;;0.60;99.90;;;;;;5056366;28;20627;-59
2023/11/27 07:02:15;;;;;;;17.57;8.13;;;0.60;99.90;;;;;;5056990;28;20202;-60
2023/11/27 07:04:40;;;;;;;14.50;8.67;;;0.60;99.90;;;;;;5062638;28;20284;-60
2023/11/27 07:07:06;;;;;;;16.40;9.63;;;0.60;99.90;;;;;;5060976;28;20230;-62
2023/11/27 07:09:31;;;;;;;18.47;9.30;;;0.60;99.90;;;;;;5061125;28;20563;-61
2023/11/27 07:11:58;;;;;;;18.70;9.10;;;0.60;99.90;;;;;;5054838;28;20200;-60
2023/11/27 07:14:26;;;;;;;21.60;9.50;;;0.60;99.90;;;;;;5060665;28;20889;-60
2023/11/27 07:16:51;;;;;;;16.30;9.03;;;0.70;99.90;;;;;;5064438;28;20466;-60
2023/11/27 07:19:17;;;;;;;22.57;11.07;;;0.70;99.90;;;;;;5060649;28;20432;-60
2023/11/27 07:21:43;;;;;;;18.40;9.57;;;0.70;99.90;;;;;;5059184;28;20194;-60
2023/11/27 07:24:09;;;;;;;18.53;9.30;;;0.70;99.90;;;;;;5066708;28;20171;-59
2023/11/27 07:26:34;;;;;;;16.33;8.90;;;0.70;99.90;;;;;;5061268;28;20195;-60
2023/11/27 07:29:00;;;;;;;16.67;9.33;;;0.70;99.90;;;;;;5065042;28;20419;-60
2023/11/27 07:31:27;;;;;;;20.00;9.27;;;0.80;99.90;;;;;;5063117;28;20693;-60
2023/11/27 07:33:54;;;;;;;20.97;10.20;;;0.80;99.90;;;;;;5064777;28;20181;-60
2023/11/27 07:36:20;;;;;;;16.77;9.60;;;0.80;99.90;;;;;;5061802;28;20451;-59
2023/11/27 07:38:48;;;;;;;14.63;9.20;;;0.80;99.90;;;;;;5065292;28;22040;-60
2023/11/27 07:41:14;;;;;;;16.97;10.17;;;0.80;99.90;;;;;;5065356;28;20547;-60
2023/11/27 07:43:40;;;;;;;16.47;9.77;;;0.80;99.90;;;;;;5065667;28;20922;-60
2023/11/27 07:46:12;;;;;;;17.67;9.93;;;0.80;99.90;;;;;;5065890;28;20411;-61
2023/11/27 07:48:38;;;;;;;19.13;10.70;;;0.90;99.90;;;;;;5057876;28;20173;-60
2023/11/27 07:51:05;;;;;;;20.47;11.10;;;0.90;99.90;;;;;;5065764;28;21159;-59
2023/11/27 07:53:31;;;;;;;17.90;10.23;;;0.90;99.90;;;;;;5057381;28;20998;-61
2023/11/27 07:55:56;;;;;;;16.37;9.40;;;0.90;99.90;;;;;;5056717;28;20444;-59
2023/11/27 07:58:22;;;;;;;21.27;9.70;;;0.90;99.90;;;;;;5059261;28;20207;-60
2023/11/27 08:00:48;;;;;;;18.67;9.80;;;0.90;99.90;;;;;;5056443;28;20198;-61
2023/11/27 08:03:13;;;;;;;20.63;10.73;;;0.90;99.90;;;;;;5061727;28;20166;-61
2023/11/27 08:05:40;;;;;;;22.70;11.07;;;0.90;99.90;;;;;;5060851;28;20170;-60
2023/11/27 08:08:08;;;;;;;21.97;11.37;;;0.90;99.90;;;;;;5065183;28;20803;-60
2023/11/27 08:10:36;;;;;;;23.70;11.40;;;1.00;99.90;;;;;;5062657;28;20939;-60
2023/11/27 08:13:02;;;;;;;21.53;11.67;;;1.00;99.90;;;;;;5063085;28;20815;-60
2023/11/27 08:15:27;;;;;;;26.77;12.67;;;1.00;99.90;;;;;;5052628;28;20450;-60
2023/11/27 08:17:56;;;;;;;19.80;12.03;;;1.00;99.90;;;;;;5060277;28;20458;-60
2023/11/27 08:20:28;;;;;;;26.43;13.77;;;1.00;99.90;;;;;;5066021;28;20197;-60
2023/11/27 08:22:59;;;;;;;21.00;11.90;;;0.90;99.90;;;;;;5061599;28;20980;-60
2023/11/27 08:25:26;;;;;;;23.17;11.97;;;0.90;99.90;;;;;;5059005;28;20438;-60
2023/11/27 08:27:53;;;;;;;23.87;11.03;;;0.90;99.90;;;;;;5061310;28;20440;-59
2023/11/27 08:30:19;;;;;;;20.60;10.80;;;1.00;99.90;;;;;;5064134;28;20461;-59
2023/11/27 08:32:48;;;;;;;21.43;11.73;;;1.00;99.90;;;;;;5064289;28;20437;-60
2023/11/27 08:35:14;;;;;;;18.83;11.97;;;1.00;99.90;;;;;;5062478;28;20454;-61
2023/11/27 08:37:40;;;;;;;20.60;13.23;;;1.00;99.90;;;;;;5067820;28;20475;-60
2023/11/27 08:40:09;;;;;;;20.53;11.13;;;1.00;99.90;;;;;;5068643;28;20330;-59
2023/11/27 08:42:35;;;;;;;20.17;11.77;;;1.00;99.90;;;;;;5066142;28;20447;-61
2023/11/27 08:45:10;;;;;;;22.00;11.70;;;1.00;99.90;;;;;;5068692;28;20428;-60
2023/11/27 08:47:39;;;;;;;22.37;11.97;;;1.00;99.90;;;;;;5065211;28;20447;-60
2023/11/27 08:50:07;;;;;;;25.60;11.80;;;1.10;99.90;;;;;;5059597;28;20429;-60
2023/11/27 08:52:34;;;;;;;26.00;12.17;;;1.10;99.90;;;;;;5064421;28;20451;-61
2023/11/27 08:55:00;;;;;;;23.03;12.10;;;1.10;99.90;;;;;;5071064;28;20477;-61
2023/11/27 08:57:25;;;;;;;24.40;12.90;;;1.10;99.90;;;;;;5060477;28;20458;-62
2023/11/27 08:59:51;;;;;;;23.37;12.73;;;1.10;99.90;;;;;;5067500;28;21028;-60
2023/11/27 09:02:17;;;;;;;25.47;11.53;;;1.10;99.90;;;;;;5061452;28;20666;-59
2023/11/27 09:04:42;;;;;;;20.80;11.40;;;1.20;99.90;;;;;;5064111;28;20163;-58
2023/11/27 09:07:11;;;;;;;19.10;10.33;;;1.20;99.90;;;;;;5066558;28;20187;-59
2023/11/27 09:09:37;;;;;;;20.13;11.10;;;1.30;99.90;;;;;;5063074;28;20718;-59
2023/11/27 09:12:03;;;;;;;18.80;10.20;;;1.30;99.90;;;;;;5058818;28;20518;-58
2023/11/27 09:14:29;;;;;;;18.10;10.17;;;1.40;99.90;;;;;;5066277;28;20315;-59
2023/11/27 09:16:54;;;;;;;15.43;8.97;;;1.50;99.90;;;;;;5060458;28;20967;-59
2023/11/27 09:19:20;;;;;;;16.97;9.70;;;1.50;99.90;;;;;;5069267;28;20547;-59
2023/11/27 09:21:45;;;;;;;14.00;9.30;;;1.60;99.90;;;;;;5061885;28;20282;-58
2023/11/27 09:24:11;;;;;;;20.03;8.40;;;1.60;99.90;;;;;;5070424;28;20173;-59
2023/11/27 09:26:37;;;;;;;14.13;8.30;;;1.70;99.90;;;;;;5067975;28;21021;-58
2023/11/27 09:29:02;;;;;;;13.10;8.20;;;1.70;99.90;;;;;;5066049;28;20192;-58
2023/11/27 09:31:29;;;;;;;11.70;7.80;;;1.70;99.90;;;;;;5060043;28;20320;-59
2023/11/27 09:33:54;;;;;;;10.80;6.57;;;1.70;99.90;;;;;;5063226;28;20172;-59
2023/11/27 09:36:20;;;;;;;9.40;5.80;;;1.70;99.90;;;;;;5061276;28;20463;-59
2023/11/27 09:38:47;;;;;;;10.40;6.13;;;1.70;99.90;;;;;;5060870;28;20184;-59
2023/11/27 09:41:13;;;;;;;11.27;6.27;;;1.70;99.90;;;;;;5067165;28;20276;-59
2023/11/27 09:43:39;;;;;;;10.60;7.17;;;1.80;99.90;;;;;;5069216;28;20421;-59
2023/11/27 09:46:07;;;;;;;9.83;5.93;;;1.80;99.90;;;;;;5067025;28;20819;-59
2023/11/27 09:48:39;;;;;;;10.33;7.13;;;1.80;99.90;;;;;;5061881;28;20432;-60
2023/11/27 09:51:11;;;;;;;8.90;6.63;;;1.80;99.90;;;;;;5067488;28;20452;-59
2023/11/27 09:53:40;;;;;;;12.43;7.60;;;1.80;99.90;;;;;;5069444;28;20420;-59
2023/11/27 09:56:09;;;;;;;12.13;7.17;;;1.90;99.90;;;;;;5066803;28;20444;-58
2023/11/27 09:58:42;;;;;;;10.10;6.30;;;1.90;99.90;;;;;;5068818;28;20770;-58
2023/11/27 10:01:12;;;;;;;11.10;6.63;;;1.90;99.90;;;;;;5067998;28;20936;-59
2023/11/27 10:03:39;;;;;;;17.03;7.67;;;2.00;99.90;;;;;;5061473;28;20413;-59
2023/11/27 10:06:08;;;;;;;12.47;7.27;;;2.00;99.90;;;;;;5059814;28;20428;-59
2023/11/27 10:08:35;;;;;;;11.40;7.47;;;2.00;99.90;;;;;;5063173;28;20425;-58
2023/11/27 10:11:01;;;;;;;12.73;7.67;;;2.00;99.90;;;;;;5063222;28;20542;-59
2023/11/27 10:13:37;;;;;;;12.87;7.00;;;2.00;99.90;;;;;;5068000;28;20520;-61
2023/11/27 10:16:05;;;;;;;14.60;7.83;;;2.00;99.90;;;;;;5062405;28;20421;-60
2023/11/27 10:18:32;;;;;;;11.27;7.90;;;2.00;99.90;;;;;;5063537;28;20805;-62
2023/11/27 10:20:58;;;;;;;13.60;7.60;;;2.00;99.90;;;;;;5062265;28;21433;-61
2023/11/27 10:23:27;;;;;;;12.67;7.80;;;2.00;99.90;;;;;;5056340;28;20949;-61
2023/11/27 10:26:00;;;;;;;16.13;8.20;;;2.00;99.90;;;;;;5065747;28;20424;-60
2023/11/27 10:28:41;;;;;;;13.13;7.43;;;2.00;99.90;;;;;;5060879;28;20518;-60
2023/11/27 10:31:07;;;;;;;14.40;8.33;;;2.00;99.90;;;;;;5061626;28;20502;-61
2023/11/27 10:33:33;;;;;;;11.90;7.73;;;2.00;99.90;;;;;;5066495;28;20980;-60
2023/11/27 10:35:59;;;;;;;10.07;7.37;;;2.00;99.90;;;;;;5063853;28;20668;-61
2023/11/27 10:38:25;;;;;;;13.13;8.20;;;2.00;99.90;;;;;;5053116;28;20190;-61
2023/11/27 10:40:51;;;;;;;18.37;8.30;;;2.00;99.90;;;;;;5056989;28;20817;-60
2023/11/27 10:43:21;;;;;;;11.13;7.90;;;2.00;99.90;;;;;;5063919;28;20611;-60
2023/11/27 10:45:49;;;;;;;13.47;8.23;;;2.10;99.90;;;;;;5055095;28;20440;-60
2023/11/27 10:48:16;;;;;;;14.90;8.47;;;2.10;99.90;;;;;;5057833;28;20472;-61
2023/11/27 10:50:45;;;;;;;14.20;8.90;;;2.10;99.90;;;;;;5057584;28;20439;-60
2023/11/27 10:53:13;;;;;;;14.57;8.60;;;2.20;99.90;;;;;;5061966;28;20440;-60
2023/11/27 10:55:43;;;;;;;16.47;7.83;;;2.20;99.90;;;;;;5060212;28;20429;-61
2023/11/27 10:58:11;;;;;;;15.80;9.17;;;2.30;99.90;;;;;;5063233;28;20464;-61
2023/11/27 11:00:46;;;;;;;12.10;8.30;;;2.40;99.90;;;;;;5061602;28;20481;-60
2023/11/27 11:03:19;;;;;;;11.60;7.50;;;2.50;99.90;;;;;;5058546;28;20991;-61
2023/11/27 11:05:50;;;;;;;14.93;7.70;;;2.50;99.90;;;;;;5063479;28;20428;-60
2023/11/27 11:08:22;;;;;;;13.00;7.77;;;2.60;99.90;;;;;;5062564;28;20851;-61
2023/11/27 11:10:48;;;;;;;13.33;7.93;;;2.60;99.90;;;;;;5059380;28;21098;-61
2023/11/27 11:13:17;;;;;;;11.43;7.40;;;2.70;99.90;;;;;;5052809;28;20425;-60
2023/11/27 11:16:03;;;;;;;14.20;9.00;;;2.70;99.90;;;;;;5059383;28;20438;-60
2023/11/27 11:18:51;;;;;;;11.97;7.77;;;2.70;99.90;;;;;;5051694;28;20535;-61
2023/11/27 11:21:23;;;;;;;9.97;7.03;;;2.70;99.90;;;;;;5061116;28;20436;-60
2023/11/27 11:24:24;;;;;;;14.43;7.90;;;2.70;99.90;;;;;;5054804;28;21025;-60
2023/11/27 11:26:49;;;;;;;12.97;7.90;;;2.70;99.90;;;;;;5058828;28;20427;-60
2023/11/27 11:29:33;;;;;;;13.27;8.33;;;2.80;99.90;;;;;;5063334;28;20412;-60
2023/11/27 11:32:08;;;;;;;15.63;7.50;;;2.80;99.90;;;;;;5071119;28;20277;-61
2023/11/27 11:34:40;;;;;;;14.10;7.57;;;2.80;99.90;;;;;;5055915;28;20479;-59
2023/11/27 11:37:07;;;;;;;12.77;8.40;;;2.80;99.90;;;;;;5064348;28;20481;-59
2023/11/27 11:39:36;;;;;;;20.70;8.50;;;2.90;99.90;;;;;;5063643;28;20428;-59
2023/11/27 11:42:01;;;;;;;13.20;7.60;;;2.80;99.90;;;;;;5050644;28;21089;-58
2023/11/27 11:44:28;;;;;;;11.27;7.27;;;2.80;99.90;;;;;;5062708;28;20408;-61
2023/11/27 11:46:54;;;;;;;11.53;7.30;;;2.90;99.90;;;;;;5062362;28;20186;-60
2023/11/27 11:49:28;;;;;;;10.73;6.50;;;2.90;99.90;;;;;;5059327;28;20447;-60
2023/11/27 11:52:08;;;;;;;20.93;6.90;;;2.90;99.90;;;;;;5052604;28;21008;-61
2023/11/27 11:54:38;;;;;;;10.90;7.60;;;2.80;99.90;;;;;;5061677;28;20431;-58
2023/11/27 11:57:22;;;;;;;12.13;7.23;;;2.80;99.90;;;;;;5056513;28;20445;-59
2023/11/27 11:59:52;;;;;;;12.10;7.10;;;2.80;99.90;;;;;;5062160;28;20425;-58
2023/11/27 12:02:22;;;;;;;10.40;6.37;;;2.80;99.90;;;;;;5055862;28;20454;-59
2023/11/27 12:04:52;;;;;;;15.93;6.50;;;2.80;99.90;;;;;;5062170;28;20938;-59
2023/11/27 12:07:18;;;;;;;10.20;6.20;;;2.80;99.90;;;;;;5058770;28;21202;-59
2023/11/27 12:09:47;;;;;;;10.17;6.43;;;2.90;99.90;;;;;;5058865;28;20435;-59
2023/11/27 12:12:15;;;;;;;8.70;6.50;;;2.90;99.90;;;;;;5054223;28;20946;-59
2023/11/27 12:14:42;;;;;;;11.60;7.00;;;3.00;99.90;;;;;;5063278;28;20431;-60
2023/11/27 12:17:08;;;;;;;11.07;6.20;;;3.00;99.90;;;;;;5063787;28;20475;-60
2023/11/27 12:19:35;;;;;;;7.57;5.40;;;3.10;99.90;;;;;;5056922;28;20421;-61
2023/11/27 12:22:01;;;;;;;11.17;5.90;;;3.10;99.90;;;;;;5064008;28;20193;-59
2023/11/27 12:24:27;;;;;;;10.33;7.23;;;3.10;99.90;;;;;;5065174;28;20429;-59
2023/11/27 12:26:53;;;;;;;14.27;6.57;;;3.10;99.90;;;;;;5068645;28;20826;-59
2023/11/27 12:29:19;;;;;;;7.67;5.50;;;3.10;99.90;;;;;;5066036;28;20486;-59
2023/11/27 12:31:46;;;;;;;11.53;6.20;;;3.10;99.90;;;;;;5064262;28;20252;-59
2023/11/27 12:34:20;;;;;;;9.20;6.00;;;3.10;99.90;;;;;;5063908;28;20540;-60
2023/11/27 12:36:46;;;;;;;7.70;5.40;;;3.10;99.90;;;;;;5060285;28;20460;-60